sensor_id;sensor_type;location;lat;lon;timestamp;pressure;altitude;pressure_sealevel;temperature;humidity
65557;BME280;52200;53.490;14.376;2023-04-25T00:01:20;100263.09;;;8.89;78.17
65557;BME280;52200;53.490;14.376;2023-04-25T00:03:47;100262.84;;;8.98;77.94
65557;BME280;52200;53.490;14.376;2023-04-25T00:06:12;100270.94;;;8.81;77.60
65557;BME280;52200;53.490;14.376;2023-04-25T00:08:38;100259.00;;;8.85;77.18
65557;BME280;52200;53.490;14.376;2023-04-25T00:11:04;100256.47;;;8.85;77.23
65557;BME280;52200;53.490;14.376;2023-04-25T00:13:29;100266.50;;;8.88;77.96
65557;BME280;52200;53.490;14.376;2023-04-25T00:15:55;100263.00;;;8.94;77.84
65557;BME280;52200;53.490;14.376;2023-04-25T00:18:21;100268.84;;;8.64;79.29
65557;BME280;52200;53.490;14.376;2023-04-25T00:20:47;100259.81;;;8.54;79.41
65557;BME280;52200;53.490;14.376;2023-04-25T00:23:14;100262.31;;;8.55;78.81
65557;BME280;52200;53.490;14.376;2023-04-25T00:25:44;100258.34;;;8.45;79.67
65557;BME280;52200;53.490;14.376;2023-04-25T00:28:10;100270.44;;;8.32;80.28
65557;BME280;52200;53.490;14.376;2023-04-25T00:30:36;100263.59;;;8.36;79.21
65557;BME280;52200;53.490;14.376;2023-04-25T00:33:01;100268.66;;;8.36;79.64
65557;BME280;52200;53.490;14.376;2023-04-25T00:35:26;100257.88;;;8.29;79.53
65557;BME280;52200;53.490;14.376;2023-04-25T00:37:52;100268.16;;;8.23;81.13
65557;BME280;52200;53.490;14.376;2023-04-25T00:40:17;100259.31;;;8.05;80.85
65557;BME280;52200;53.490;14.376;2023-04-25T00:42:43;100255.34;;;7.93;80.98
65557;BME280;52200;53.490;14.376;2023-04-25T00:45:13;100254.47;;;7.96;81.16
65557;BME280;52200;53.490;14.376;2023-04-25T00:47:40;100255.34;;;7.93;81.07
65557;BME280;52200;53.490;14.376;2023-04-25T00:50:06;100262.50;;;7.75;82.23
65557;BME280;52200;53.490;14.376;2023-04-25T00:52:32;100259.38;;;7.64;82.68
65557;BME280;52200;53.490;14.376;2023-04-25T00:54:58;100254.69;;;7.49;83.94
65557;BME280;52200;53.490;14.376;2023-04-25T00:57:24;100262.13;;;7.53;83.59
65557;BME280;52200;53.490;14.376;2023-04-25T00:59:51;100261.25;;;7.56;84.01
65557;BME280;52200;53.490;14.376;2023-04-25T01:02:17;100255.84;;;7.32;85.34
65557;BME280;52200;53.490;14.376;2023-04-25T01:04:42;100257.72;;;7.63;84.41
65557;BME280;52200;53.490;14.376;2023-04-25T01:07:09;100259.78;;;7.46;85.53
65557;BME280;52200;53.490;14.376;2023-04-25T01:09:35;100254.19;;;7.70;84.02
65557;BME280;52200;53.490;14.376;2023-04-25T01:12:01;100255.91;;;7.68;84.23
65557;BME280;52200;53.490;14.376;2023-04-25T01:14:27;100254.31;;;7.25;86.06
65557;BME280;52200;53.490;14.376;2023-04-25T01:16:52;100253.06;;;7.45;84.83
65557;BME280;52200;53.490;14.376;2023-04-25T01:19:20;100251.47;;;7.40;85.01
65557;BME280;52200;53.490;14.376;2023-04-25T01:21:46;100247.88;;;7.51;84.70
65557;BME280;52200;53.490;14.376;2023-04-25T01:24:12;100246.06;;;7.56;84.81
65557;BME280;52200;53.490;14.376;2023-04-25T01:26:38;100240.72;;;7.70;84.05
65557;BME280;52200;53.490;14.376;2023-04-25T01:29:05;100244.22;;;7.64;84.28
65557;BME280;52200;53.490;14.376;2023-04-25T01:31:32;100244.63;;;7.46;84.97
65557;BME280;52200;53.490;14.376;2023-04-25T01:33:58;100250.72;;;7.37;85.66
65557;BME280;52200;53.490;14.376;2023-04-25T01:36:23;100255.81;;;7.34;86.67
65557;BME280;52200;53.490;14.376;2023-04-25T01:38:49;100250.41;;;7.12;87.92
65557;BME280;52200;53.490;14.376;2023-04-25T01:41:15;100253.41;;;7.29;87.90
65557;BME280;52200;53.490;14.376;2023-04-25T01:43:42;100257.31;;;7.00;88.41
65557;BME280;52200;53.490;14.376;2023-04-25T01:46:07;100263.69;;;7.20;88.97
65557;BME280;52200;53.490;14.376;2023-04-25T01:48:33;100262.63;;;7.69;86.06
65557;BME280;52200;53.490;14.376;2023-04-25T01:50:58;100263.88;;;7.89;85.11
65557;BME280;52200;53.490;14.376;2023-04-25T01:53:24;100258.22;;;7.79;86.20
65557;BME280;52200;53.490;14.376;2023-04-25T01:55:50;100257.38;;;7.79;86.00
65557;BME280;52200;53.490;14.376;2023-04-25T01:58:15;100263.69;;;7.98;85.02
65557;BME280;52200;53.490;14.376;2023-04-25T02:00:40;100252.38;;;7.75;85.87
65557;BME280;52200;53.490;14.376;2023-04-25T02:03:07;100253.34;;;7.71;85.60
65557;BME280;52200;53.490;14.376;2023-04-25T02:05:37;100255.63;;;7.81;85.35
65557;BME280;52200;53.490;14.376;2023-04-25T02:08:05;100258.53;;;7.65;85.49
65557;BME280;52200;53.490;14.376;2023-04-25T02:10:32;100260.97;;;7.68;86.14
65557;BME280;52200;53.490;14.376;2023-04-25T02:12:58;100257.81;;;7.58;86.50
65557;BME280;52200;53.490;14.376;2023-04-25T02:15:23;100256.59;;;7.37;86.86
65557;BME280;52200;53.490;14.376;2023-04-25T02:17:49;100257.53;;;7.72;86.44
65557;BME280;52200;53.490;14.376;2023-04-25T02:20:14;100245.94;;;7.62;86.87
65557;BME280;52200;53.490;14.376;2023-04-25T02:22:41;100254.59;;;7.52;87.03
65557;BME280;52200;53.490;14.376;2023-04-25T02:25:09;100259.00;;;7.81;86.75
65557;BME280;52200;53.490;14.376;2023-04-25T02:27:34;100260.06;;;7.72;86.96
65557;BME280;52200;53.490;14.376;2023-04-25T02:30:00;100254.88;;;7.79;86.44
65557;BME280;52200;53.490;14.376;2023-04-25T02:32:26;100259.53;;;7.58;86.48
65557;BME280;52200;53.490;14.376;2023-04-25T02:34:52;100261.06;;;7.65;86.80
65557;BME280;52200;53.490;14.376;2023-04-25T02:37:17;100267.41;;;7.82;85.75
65557;BME280;52200;53.490;14.376;2023-04-25T02:39:43;100258.16;;;7.43;87.21
65557;BME280;52200;53.490;14.376;2023-04-25T02:42:08;100256.75;;;7.30;88.59
65557;BME280;52200;53.490;14.376;2023-04-25T02:44:34;100257.09;;;7.53;87.53
65557;BME280;52200;53.490;14.376;2023-04-25T02:46:59;100259.28;;;7.69;86.49
65557;BME280;52200;53.490;14.376;2023-04-25T02:49:25;100255.59;;;7.45;86.82
65557;BME280;52200;53.490;14.376;2023-04-25T02:51:50;100255.28;;;7.58;87.48
65557;BME280;52200;53.490;14.376;2023-04-25T02:54:15;100262.34;;;7.44;87.65
65557;BME280;52200;53.490;14.376;2023-04-25T02:56:41;100253.91;;;7.45;86.82
65557;BME280;52200;53.490;14.376;2023-04-25T02:59:06;100256.19;;;7.56;86.44
65557;BME280;52200;53.490;14.376;2023-04-25T03:01:32;100252.78;;;7.57;86.56
65557;BME280;52200;53.490;14.376;2023-04-25T03:03:57;100258.22;;;7.40;87.00
65557;BME280;52200;53.490;14.376;2023-04-25T03:06:22;100256.13;;;7.59;86.00
65557;BME280;52200;53.490;14.376;2023-04-25T03:08:48;100251.63;;;7.72;85.44
65557;BME280;52200;53.490;14.376;2023-04-25T03:11:13;100252.16;;;7.86;84.76
65557;BME280;52200;53.490;14.376;2023-04-25T03:13:39;100255.94;;;7.67;84.71
65557;BME280;52200;53.490;14.376;2023-04-25T03:16:04;100252.38;;;7.75;84.98
65557;BME280;52200;53.490;14.376;2023-04-25T03:18:30;100253.06;;;7.45;85.63
65557;BME280;52200;53.490;14.376;2023-04-25T03:20:55;100254.69;;;7.49;86.21
65557;BME280;52200;53.490;14.376;2023-04-25T03:23:21;100256.84;;;7.64;85.51
65557;BME280;52200;53.490;14.376;2023-04-25T03:25:46;100256.09;;;7.61;86.29
65557;BME280;52200;53.490;14.376;2023-04-25T03:28:12;100252.63;;;7.65;86.52
65557;BME280;52200;53.490;14.376;2023-04-25T03:30:37;100254.88;;;7.79;86.50
65557;BME280;52200;53.490;14.376;2023-04-25T03:33:03;100259.91;;;7.79;86.84
65557;BME280;52200;53.490;14.376;2023-04-25T03:35:28;100257.22;;;7.47;87.64
65557;BME280;52200;53.490;14.376;2023-04-25T03:37:54;100253.78;;;7.51;88.46
65557;BME280;52200;53.490;14.376;2023-04-25T03:40:19;100264.94;;;7.42;89.36
65557;BME280;52200;53.490;14.376;2023-04-25T03:42:45;100256.28;;;7.53;89.28
65557;BME280;52200;53.490;14.376;2023-04-25T03:45:11;100259.78;;;7.46;89.95
65557;BME280;52200;53.490;14.376;2023-04-25T03:47:36;100265.75;;;7.43;89.90
65557;BME280;52200;53.490;14.376;2023-04-25T03:50:02;100256.81;;;7.67;89.56
65557;BME280;52200;53.490;14.376;2023-04-25T03:52:28;100267.78;;;7.66;88.41
65557;BME280;52200;53.490;14.376;2023-04-25T03:54:53;100263.59;;;7.65;89.03
65557;BME280;52200;53.490;14.376;2023-04-25T03:57:19;100263.50;;;7.70;88.99
65557;BME280;52200;53.490;14.376;2023-04-25T03:59:44;100262.34;;;7.82;88.78
65557;BME280;52200;53.490;14.376;2023-04-25T04:02:10;100264.44;;;7.64;90.60
65557;BME280;52200;53.490;14.376;2023-04-25T04:04:35;100267.84;;;8.01;89.32
65557;BME280;52200;53.490;14.376;2023-04-25T04:07:01;100268.38;;;8.14;88.40
65557;BME280;52200;53.490;14.376;2023-04-25T04:09:27;100266.03;;;8.06;88.68
65557;BME280;52200;53.490;14.376;2023-04-25T04:11:53;100268.31;;;8.15;88.04
65557;BME280;52200;53.490;14.376;2023-04-25T04:14:18;100267.28;;;7.88;89.79
65557;BME280;52200;53.490;14.376;2023-04-25T04:16:44;100277.78;;;8.09;88.87
65557;BME280;52200;53.490;14.376;2023-04-25T04:19:10;100276.63;;;7.84;89.64
65557;BME280;52200;53.490;14.376;2023-04-25T04:21:35;100280.91;;;7.82;90.91
65557;BME280;52200;53.490;14.376;2023-04-25T04:24:01;100274.94;;;7.85;89.80
65557;BME280;52200;53.490;14.376;2023-04-25T04:26:26;100287.22;;;8.00;89.29
65557;BME280;52200;53.490;14.376;2023-04-25T04:28:53;100284.97;;;8.24;87.95
65557;BME280;52200;53.490;14.376;2023-04-25T04:31:22;100284.13;;;8.25;88.11
65557;BME280;52200;53.490;14.376;2023-04-25T04:33:49;100285.28;;;8.12;88.63
65557;BME280;52200;53.490;14.376;2023-04-25T04:36:14;100289.25;;;8.22;88.88
65557;BME280;52200;53.490;14.376;2023-04-25T04:38:40;100296.19;;;8.50;87.01
65557;BME280;52200;53.490;14.376;2023-04-25T04:41:06;100284.88;;;8.29;87.36
65557;BME280;52200;53.490;14.376;2023-04-25T04:43:31;100288.66;;;8.48;87.08
65557;BME280;52200;53.490;14.376;2023-04-25T04:46:00;100298.78;;;8.48;86.40
65557;BME280;52200;53.490;14.376;2023-04-25T04:48:25;100304.31;;;8.63;85.40
65557;BME280;52200;53.490;14.376;2023-04-25T04:50:51;100302.81;;;8.55;86.80
65557;BME280;52200;53.490;14.376;2023-04-25T04:53:17;100298.63;;;8.54;86.08
65557;BME280;52200;53.490;14.376;2023-04-25T04:55:42;100305.31;;;8.57;85.68
65557;BME280;52200;53.490;14.376;2023-04-25T04:58:08;100305.69;;;8.75;85.36
65557;BME280;52200;53.490;14.376;2023-04-25T05:00:33;100310.63;;;8.46;86.42
65557;BME280;52200;53.490;14.376;2023-04-25T05:02:59;100304.94;;;8.36;85.94
65557;BME280;52200;53.490;14.376;2023-04-25T05:05:25;100310.16;;;8.66;85.50
65557;BME280;52200;53.490;14.376;2023-04-25T05:07:50;100301.34;;;8.80;85.03
65557;BME280;52200;53.490;14.376;2023-04-25T05:10:17;100306.06;;;8.94;84.53
65557;BME280;52200;53.490;14.376;2023-04-25T05:12:43;100310.09;;;9.01;84.33
65557;BME280;52200;53.490;14.376;2023-04-25T05:15:09;100312.00;;;8.93;84.03
65557;BME280;52200;53.490;14.376;2023-04-25T05:17:35;100317.00;;;8.94;84.66
65557;BME280;52200;53.490;14.376;2023-04-25T05:20:01;100309.13;;;9.05;83.45
65557;BME280;52200;53.490;14.376;2023-04-25T05:22:26;100316.78;;;9.02;84.19
65557;BME280;52200;53.490;14.376;2023-04-25T05:24:52;100313.31;;;9.06;83.16
65557;BME280;52200;53.490;14.376;2023-04-25T05:27:18;100315.72;;;9.11;83.30
65557;BME280;52200;53.490;14.376;2023-04-25T05:29:44;100311.72;;;9.03;83.08
65557;BME280;52200;53.490;14.376;2023-04-25T05:32:10;100315.19;;;8.99;83.33
65557;BME280;52200;53.490;14.376;2023-04-25T05:34:35;100317.19;;;9.19;82.74
65557;BME280;52200;53.490;14.376;2023-04-25T05:37:01;100321.81;;;9.35;82.32
65557;BME280;52200;53.490;14.376;2023-04-25T05:39:27;100321.75;;;9.07;83.04
65557;BME280;52200;53.490;14.376;2023-04-25T05:41:52;100322.28;;;9.18;82.87
65557;BME280;52200;53.490;14.376;2023-04-25T05:44:19;100319.56;;;9.24;82.04
65557;BME280;52200;53.490;14.376;2023-04-25T05:46:44;100324.44;;;8.67;83.22
65557;BME280;52200;53.490;14.376;2023-04-25T05:49:10;100329.28;;;8.77;84.25
65557;BME280;52200;53.490;14.376;2023-04-25T05:51:35;100330.09;;;8.79;83.56
65557;BME280;52200;53.490;14.376;2023-04-25T05:54:01;100335.38;;;8.69;83.77
65557;BME280;52200;53.490;14.376;2023-04-25T05:56:26;100332.38;;;8.88;83.35
65557;BME280;52200;53.490;14.376;2023-04-25T05:58:51;100335.88;;;8.84;83.20
65557;BME280;52200;53.490;14.376;2023-04-25T06:01:17;100334.63;;;8.66;84.07
65557;BME280;52200;53.490;14.376;2023-04-25T06:03:42;100334.69;;;8.96;83.66
65557;BME280;52200;53.490;14.376;2023-04-25T06:06:08;100334.41;;;8.74;82.76
65557;BME280;52200;53.490;14.376;2023-04-25T06:08:34;100336.63;;;8.87;83.04
65557;BME280;52200;53.490;14.376;2023-04-25T06:11:00;100343.13;;;8.96;82.74
65557;BME280;52200;53.490;14.376;2023-04-25T06:13:25;100346.47;;;8.65;83.71
65557;BME280;52200;53.490;14.376;2023-04-25T06:15:51;100352.88;;;8.79;83.15
65557;BME280;52200;53.490;14.376;2023-04-25T06:18:16;100348.16;;;8.98;83.57
65557;BME280;52200;53.490;14.376;2023-04-25T06:20:42;100346.75;;;9.19;82.92
65557;BME280;52200;53.490;14.376;2023-04-25T06:23:07;100357.84;;;8.82;84.70
65557;BME280;52200;53.490;14.376;2023-04-25T06:25:32;100349.59;;;8.74;85.10
65557;BME280;52200;53.490;14.376;2023-04-25T06:27:58;100355.81;;;8.62;86.36
65557;BME280;52200;53.490;14.376;2023-04-25T06:30:24;100354.31;;;8.89;86.13
65557;BME280;52200;53.490;14.376;2023-04-25T06:32:51;100350.75;;;8.96;86.64
65557;BME280;52200;53.490;14.376;2023-04-25T06:35:18;100358.44;;;8.92;87.30
65557;BME280;52200;53.490;14.376;2023-04-25T06:37:43;100342.78;;;9.40;86.35
65557;BME280;52200;53.490;14.376;2023-04-25T06:40:09;100348.41;;;9.20;87.06
65557;BME280;52200;53.490;14.376;2023-04-25T06:42:34;100351.13;;;9.75;85.79
65557;BME280;52200;53.490;14.376;2023-04-25T06:45:00;100350.25;;;10.31;85.11
65557;BME280;52200;53.490;14.376;2023-04-25T06:47:25;100352.19;;;10.23;83.23
65557;BME280;52200;53.490;14.376;2023-04-25T06:49:51;100352.66;;;10.36;82.64
65557;BME280;52200;53.490;14.376;2023-04-25T06:52:16;100351.66;;;10.67;82.12
65557;BME280;52200;53.490;14.376;2023-04-25T06:54:43;100350.94;;;11.14;82.52
65557;BME280;52200;53.490;14.376;2023-04-25T06:57:08;100357.88;;;10.58;80.38
65557;BME280;52200;53.490;14.376;2023-04-25T06:59:34;100353.97;;;10.48;80.14
65557;BME280;52200;53.490;14.376;2023-04-25T07:01:59;100360.84;;;9.89;82.01
65557;BME280;52200;53.490;14.376;2023-04-25T07:04:25;100355.78;;;9.59;83.29
65557;BME280;52200;53.490;14.376;2023-04-25T07:06:50;100356.19;;;10.04;83.05
65557;BME280;52200;53.490;14.376;2023-04-25T07:09:16;100365.72;;;9.95;82.48
65557;BME280;52200;53.490;14.376;2023-04-25T07:11:42;100366.53;;;9.97;82.01
65557;BME280;52200;53.490;14.376;2023-04-25T07:14:07;100371.69;;;9.94;82.25
65557;BME280;52200;53.490;14.376;2023-04-25T07:16:32;100374.66;;;9.49;81.22
65557;BME280;52200;53.490;14.376;2023-04-25T07:18:58;100370.94;;;9.31;82.37
65557;BME280;52200;53.490;14.376;2023-04-25T07:21:24;100373.59;;;9.26;83.69
65557;BME280;52200;53.490;14.376;2023-04-25T07:23:50;100373.69;;;8.90;83.67
65557;BME280;52200;53.490;14.376;2023-04-25T07:26:16;100385.03;;;9.08;84.05
65557;BME280;52200;53.490;14.376;2023-04-25T07:28:42;100375.25;;;9.27;83.22
65557;BME280;52200;53.490;14.376;2023-04-25T07:31:08;100379.69;;;9.19;82.73
65557;BME280;52200;53.490;14.376;2023-04-25T07:33:34;100387.63;;;9.07;83.48
65557;BME280;52200;53.490;14.376;2023-04-25T07:35:59;100381.84;;;9.34;82.30
65557;BME280;52200;53.490;14.376;2023-04-25T07:38:25;100384.69;;;9.22;82.89
65557;BME280;52200;53.490;14.376;2023-04-25T07:40:51;100398.63;;;9.06;84.15
65557;BME280;52200;53.490;14.376;2023-04-25T07:43:17;100396.72;;;8.81;84.54
65557;BME280;52200;53.490;14.376;2023-04-25T07:45:43;100398.47;;;8.79;85.39
65557;BME280;52200;53.490;14.376;2023-04-25T07:48:09;100405.31;;;8.74;87.13
65557;BME280;52200;53.490;14.376;2023-04-25T07:50:35;100405.25;;;8.77;86.10
65557;BME280;52200;53.490;14.376;2023-04-25T07:53:00;100411.44;;;8.65;85.96
65557;BME280;52200;53.490;14.376;2023-04-25T07:55:26;100406.09;;;8.77;85.24
65557;BME280;52200;53.490;14.376;2023-04-25T07:57:52;100406.03;;;8.80;85.77
65557;BME280;52200;53.490;14.376;2023-04-25T08:00:17;100412.31;;;8.98;85.37
65557;BME280;52200;53.490;14.376;2023-04-25T08:02:43;100412.38;;;8.97;84.20
65557;BME280;52200;53.490;14.376;2023-04-25T08:05:09;100422.66;;;8.91;83.29
65557;BME280;52200;53.490;14.376;2023-04-25T08:07:37;100415.44;;;8.75;83.61
65557;BME280;52200;53.490;14.376;2023-04-25T08:10:05;100415.53;;;8.70;82.91
65557;BME280;52200;53.490;14.376;2023-04-25T08:12:30;100424.09;;;8.66;82.76
65557;BME280;52200;53.490;14.376;2023-04-25T08:14:56;100425.09;;;8.59;82.84
65557;BME280;52200;53.490;14.376;2023-04-25T08:17:21;100436.41;;;8.80;82.01
65557;BME280;52200;53.490;14.376;2023-04-25T08:19:47;100430.22;;;8.56;80.78
65557;BME280;52200;53.490;14.376;2023-04-25T08:22:12;100430.78;;;8.67;80.35
65557;BME280;52200;53.490;14.376;2023-04-25T08:24:38;100436.03;;;8.96;80.10
65557;BME280;52200;53.490;14.376;2023-04-25T08:27:03;100448.66;;;9.32;80.31
65557;BME280;52200;53.490;14.376;2023-04-25T08:29:29;100449.13;;;8.79;78.29
65557;BME280;52200;53.490;14.376;2023-04-25T08:31:54;100453.88;;;9.26;78.45
65557;BME280;52200;53.490;14.376;2023-04-25T08:34:20;100459.22;;;9.48;77.48
65557;BME280;52200;53.490;14.376;2023-04-25T08:36:45;100462.31;;;9.59;74.80
65557;BME280;52200;53.490;14.376;2023-04-25T08:39:11;100459.94;;;9.51;72.90
65557;BME280;52200;53.490;14.376;2023-04-25T08:41:37;100464.97;;;9.55;71.87
65557;BME280;52200;53.490;14.376;2023-04-25T08:44:03;100461.19;;;9.99;71.27
65557;BME280;52200;53.490;14.376;2023-04-25T08:46:30;100463.13;;;10.20;70.37
65557;BME280;52200;53.490;14.376;2023-04-25T08:49:00;100473.63;;;10.09;70.28
65557;BME280;52200;53.490;14.376;2023-04-25T08:51:26;100473.44;;;9.85;70.10
65557;BME280;52200;53.490;14.376;2023-04-25T08:53:53;100472.28;;;10.25;67.51
65557;BME280;52200;53.490;14.376;2023-04-25T08:56:19;100485.03;;;10.54;65.77
65557;BME280;52200;53.490;14.376;2023-04-25T08:58:49;100472.94;;;10.04;65.72
65557;BME280;52200;53.490;14.376;2023-04-25T09:01:15;100491.47;;;10.06;65.24
65557;BME280;52200;53.490;14.376;2023-04-25T09:03:44;100488.75;;;9.82;65.45
65557;BME280;52200;53.490;14.376;2023-04-25T09:06:11;100497.41;;;10.05;65.86
65557;BME280;52200;53.490;14.376;2023-04-25T09:08:37;100496.34;;;10.72;65.08
65557;BME280;52200;53.490;14.376;2023-04-25T09:11:05;100495.75;;;10.90;64.68
65557;BME280;52200;53.490;14.376;2023-04-25T09:13:31;100498.16;;;10.67;64.08
65557;BME280;52200;53.490;14.376;2023-04-25T09:15:57;100502.25;;;10.44;64.01
65557;BME280;52200;53.490;14.376;2023-04-25T09:20:58;100493.09;;;10.93;64.19
65557;BME280;52200;53.490;14.376;2023-04-25T09:23:30;100504.78;;;10.14;60.24
65557;BME280;52200;53.490;14.376;2023-04-25T09:25:58;100502.53;;;10.03;61.32
65557;BME280;52200;53.490;14.376;2023-04-25T09:28:25;100503.63;;;10.24;59.26
65557;BME280;52200;53.490;14.376;2023-04-25T09:30:55;100495.81;;;10.30;59.65
65557;BME280;52200;53.490;14.376;2023-04-25T09:33:29;100493.59;;;11.05;61.50
65557;BME280;52200;53.490;14.376;2023-04-25T09:36:02;100490.38;;;11.50;57.96
65557;BME280;52200;53.490;14.376;2023-04-25T09:38:30;100502.44;;;11.45;57.01
65557;BME280;52200;53.490;14.376;2023-04-25T09:40:56;100497.13;;;11.01;57.06
65557;BME280;52200;53.490;14.376;2023-04-25T09:43:23;100502.44;;;10.66;57.35
65557;BME280;52200;53.490;14.376;2023-04-25T09:45:49;100511.28;;;10.81;58.03
65557;BME280;52200;53.490;14.376;2023-04-25T09:48:21;100516.47;;;10.78;58.04
65557;BME280;52200;53.490;14.376;2023-04-25T09:51:08;100510.47;;;10.52;58.58
65557;BME280;52200;53.490;14.376;2023-04-25T09:53:39;100520.78;;;11.03;58.57
65557;BME280;52200;53.490;14.376;2023-04-25T09:56:08;100520.25;;;10.91;57.16
65557;BME280;52200;53.490;14.376;2023-04-25T09:58:35;100509.22;;;11.19;56.54
65557;BME280;52200;53.490;14.376;2023-04-25T10:01:03;100517.38;;;11.80;55.78
65557;BME280;52200;53.490;14.376;2023-04-25T10:03:30;100515.59;;;12.07;54.44
65557;BME280;52200;53.490;14.376;2023-04-25T10:05:58;100519.78;;;12.54;53.11
65557;BME280;52200;53.490;14.376;2023-04-25T10:08:25;100516.44;;;12.30;53.20
65557;BME280;52200;53.490;14.376;2023-04-25T10:10:52;100521.31;;;12.80;51.19
65557;BME280;52200;53.490;14.376;2023-04-25T10:13:18;100526.34;;;12.82;51.96
65557;BME280;52200;53.490;14.376;2023-04-25T10:15:44;100543.41;;;12.35;52.34
65557;BME280;52200;53.490;14.376;2023-04-25T10:18:11;100541.53;;;11.16;55.25
65557;BME280;52200;53.490;14.376;2023-04-25T10:20:37;100537.00;;;10.70;55.83
65557;BME280;52200;53.490;14.376;2023-04-25T10:23:13;100550.38;;;11.04;57.40
65557;BME280;52200;53.490;14.376;2023-04-25T10:25:39;100567.97;;;11.11;55.87
65557;BME280;52200;53.490;14.376;2023-04-25T10:28:05;100553.50;;;10.85;56.34
65557;BME280;52200;53.490;14.376;2023-04-25T10:30:31;100577.63;;;10.72;57.87
65557;BME280;52200;53.490;14.376;2023-04-25T10:32:58;100562.22;;;10.78;55.71
65557;BME280;52200;53.490;14.376;2023-04-25T10:35:25;100568.91;;;10.80;55.18
65557;BME280;52200;53.490;14.376;2023-04-25T10:38:11;100578.19;;;10.53;54.24
65557;BME280;52200;53.490;14.376;2023-04-25T10:40:39;100566.84;;;11.20;53.66
65557;BME280;52200;53.490;14.376;2023-04-25T10:48:52;100577.22;;;11.66;50.73
65557;BME280;52200;53.490;14.376;2023-04-25T10:51:22;100575.84;;;11.81;50.08
65557;BME280;52200;53.490;14.376;2023-04-25T10:54:05;100573.13;;;11.60;49.72
65557;BME280;52200;53.490;14.376;2023-04-25T10:56:39;100585.28;;;12.28;50.28
65557;BME280;52200;53.490;14.376;2023-04-25T10:59:13;100585.34;;;12.72;49.66
65557;BME280;52200;53.490;14.376;2023-04-25T11:01:48;100597.06;;;12.54;49.08
65557;BME280;52200;53.490;14.376;2023-04-25T11:04:25;100599.84;;;12.70;47.89
65557;BME280;52200;53.490;14.376;2023-04-25T11:09:29;100602.22;;;11.00;47.31
65557;BME280;52200;53.490;14.376;2023-04-25T11:11:56;100595.56;;;10.95;47.95
65557;BME280;52200;53.490;14.376;2023-04-25T11:14:22;100597.72;;;11.35;48.10
65557;BME280;52200;53.490;14.376;2023-04-25T11:16:54;100593.69;;;11.54;48.40
65557;BME280;52200;53.490;14.376;2023-04-25T11:19:21;100602.72;;;11.38;48.15
65557;BME280;52200;53.490;14.376;2023-04-25T11:21:47;100593.16;;;11.44;48.00
65557;BME280;52200;53.490;14.376;2023-04-25T11:24:12;100590.69;;;11.43;48.37
65557;BME280;52200;53.490;14.376;2023-04-25T11:26:41;100595.03;;;11.66;47.67
65557;BME280;52200;53.490;14.376;2023-04-25T11:29:09;100602.59;;;11.41;47.99
65557;BME280;52200;53.490;14.376;2023-04-25T11:31:34;100602.78;;;11.61;48.64
65557;BME280;52200;53.490;14.376;2023-04-25T11:34:00;100601.81;;;12.16;47.02
65557;BME280;52200;53.490;14.376;2023-04-25T11:36:26;100592.56;;;11.63;47.52
65557;BME280;52200;53.490;14.376;2023-04-25T11:38:52;100608.69;;;11.37;46.95
65557;BME280;52200;53.490;14.376;2023-04-25T11:41:19;100617.59;;;11.50;47.35
65557;BME280;52200;53.490;14.376;2023-04-25T11:43:46;100608.34;;;11.73;47.71
65557;BME280;52200;53.490;14.376;2023-04-25T11:46:12;100619.56;;;11.13;48.63
65557;BME280;52200;53.490;14.376;2023-04-25T11:48:40;100619.31;;;10.94;49.17
65557;BME280;52200;53.490;14.376;2023-04-25T11:51:06;100628.00;;;10.57;49.50
65557;BME280;52200;53.490;14.376;2023-04-25T11:53:31;100636.47;;;10.86;49.84
65557;BME280;52200;53.490;14.376;2023-04-25T11:55:57;100624.59;;;10.58;50.06
65557;BME280;52200;53.490;14.376;2023-04-25T11:58:22;100648.88;;;10.36;50.62
65557;BME280;52200;53.490;14.376;2023-04-25T12:00:47;100645.69;;;10.60;50.69
65557;BME280;52200;53.490;14.376;2023-04-25T12:03:13;100646.59;;;10.26;50.25
65557;BME280;52200;53.490;14.376;2023-04-25T12:05:38;100640.94;;;10.48;50.54
65557;BME280;52200;53.490;14.376;2023-04-25T12:08:15;100651.78;;;10.22;50.51
65557;BME280;52200;53.490;14.376;2023-04-25T12:10:43;100646.91;;;10.14;50.10
65557;BME280;52200;53.490;14.376;2023-04-25T12:13:25;100659.63;;;10.47;50.62
65557;BME280;52200;53.490;14.376;2023-04-25T12:15:54;100655.19;;;10.22;51.31
65557;BME280;52200;53.490;14.376;2023-04-25T12:18:22;100652.03;;;10.45;51.54
65557;BME280;52200;53.490;14.376;2023-04-25T12:20:48;100657.84;;;10.49;50.76
65557;BME280;52200;53.490;14.376;2023-04-25T12:23:14;100662.59;;;10.30;50.09
65557;BME280;52200;53.490;14.376;2023-04-25T12:25:41;100668.13;;;10.46;50.62
65557;BME280;52200;53.490;14.376;2023-04-25T12:28:24;100662.19;;;10.77;50.03
65557;BME280;52200;53.490;14.376;2023-04-25T12:30:57;100663.50;;;10.90;49.85
65557;BME280;52200;53.490;14.376;2023-04-25T12:33:24;100662.81;;;10.84;49.98
65557;BME280;52200;53.490;14.376;2023-04-25T12:35:50;100661.22;;;10.81;49.41
65557;BME280;52200;53.490;14.376;2023-04-25T12:38:29;100666.22;;;10.84;50.38
65557;BME280;52200;53.490;14.376;2023-04-25T12:40:58;100662.16;;;11.07;50.61
65557;BME280;52200;53.490;14.376;2023-04-25T12:43:23;100656.59;;;11.22;49.24
65557;BME280;52200;53.490;14.376;2023-04-25T12:45:54;100654.53;;;11.62;49.29
65557;BME280;52200;53.490;14.376;2023-04-25T12:48:22;100657.75;;;11.92;48.64
65557;BME280;52200;53.490;14.376;2023-04-25T12:50:49;100664.91;;;11.56;49.49
65557;BME280;52200;53.490;14.376;2023-04-25T12:53:19;100662.28;;;11.31;50.05
65557;BME280;52200;53.490;14.376;2023-04-25T12:55:45;100668.50;;;11.22;50.63